Main page
METAR-TAF:

METAR-TAF

Airports :

Houari Boumediene Airport

Algiers, Algeria

latitude: 36-43N, longitude: 003-15E, elevation: 25 m

Current weather observation

The report was made 27 minutes ago, at 10:00 UTC
Wind 2 kt from variable directions
Temperature 23°C
Humidity 38%
Pressure 1017 hPa
Visibility 10 km or more
no clouds below 1500 m and no cumulonimbus

METAR: DAAG 161000Z VRB02KT CAVOK 23/08 Q1017

Time: 11:27 (10:27 UTC)

Forecast

The report was made 5 hours and 27 minutes ago, at 05:00 UTC
Forecast valid from 16 at 06 UTC to 17 at 06 UTC
Wind 2 kt from variable directions
Visibility: 8000 m
Few clouds at a height of 2000 ft
Probability 30% :
Temporary
from 16 at 06 UTC to 16 at 08 UTC
Visibility: 4000 m
mist
Temporary
from 16 at 12 UTC to 16 at 15 UTC
Wind 10 kt from the North/Northeast

TAF: DAAG 160500Z 1606/1706 VRB02KT 8000 FEW020 PROB30 TEMPO 1606/1608 4000 BR TEMPO 1612/1615 02010KT

Weather observations and forecasts of more than 4000 airports (METAR and TAF reports).

The available stations are represented by yellow and red dots on the map.

Hover mouse over dot to see the name of the station.

Then click to see weather observations and forecasts.

To change the map : click on the green buttons with a black cross to zoom in, on the green button with a dash to zoom out, or on the green arrows for adjacent maps.


METAR-TAF: